createdAt,value
2024-03-13T00:00:17.210Z,99.99
2024-03-13T00:02:49.492Z,99.99
2024-03-13T00:05:20.830Z,99.99
2024-03-13T00:07:51.539Z,99.99
2024-03-13T00:10:19.701Z,99.99
2024-03-13T00:12:47.712Z,99.99
2024-03-13T00:15:15.671Z,99.99
2024-03-13T00:17:46.070Z,99.99
2024-03-13T00:20:14.230Z,99.99
2024-03-13T00:22:42.843Z,99.99
2024-03-13T00:25:13.010Z,99.99
2024-03-13T00:27:43.478Z,99.99
2024-03-13T00:30:11.960Z,99.99
2024-03-13T00:32:40.089Z,99.99
2024-03-13T00:35:08.631Z,99.99
2024-03-13T00:37:36.938Z,99.99
2024-03-13T00:40:05.967Z,99.99
2024-03-13T00:42:35.221Z,99.99
2024-03-13T00:45:03.979Z,99.99
2024-03-13T00:47:32.952Z,99.99
2024-03-13T00:50:00.932Z,99.99
2024-03-13T00:52:30.087Z,99.99
2024-03-13T00:54:58.350Z,99.99
2024-03-13T00:57:28.333Z,99.99
2024-03-13T00:59:59.896Z,99.99
2024-03-13T01:02:27.853Z,99.99
2024-03-13T01:04:56.073Z,99.99
2024-03-13T01:07:24.540Z,99.99
2024-03-13T01:09:52.695Z,99.99
2024-03-13T01:12:20.920Z,99.99
2024-03-13T01:14:48.797Z,99.99
2024-03-13T01:17:18.977Z,99.99
2024-03-13T01:19:48.196Z,99.99
2024-03-13T01:22:18.935Z,99.99
2024-03-13T01:24:47.946Z,99.99
2024-03-13T01:27:15.850Z,99.99
2024-03-13T01:29:47.803Z,99.99
2024-03-13T01:32:17.363Z,99.99
2024-03-13T01:34:47.921Z,99.99
2024-03-13T01:40:20.926Z,99.99
2024-03-13T01:43:06.877Z,99.99
2024-03-13T01:46:29.639Z,99.99
2024-03-13T01:49:15.425Z,99.99
2024-03-13T01:52:02.429Z,99.99
2024-03-13T01:54:47.801Z,99.99
2024-03-13T01:57:16.943Z,99.99
2024-03-13T02:00:18.695Z,99.99
2024-03-13T02:02:46.649Z,99.99
2024-03-13T02:05:15.480Z,99.99
2024-03-13T02:07:45.296Z,99.99
2024-03-13T02:10:13.218Z,99.99
2024-03-13T02:12:41.339Z,99.99
2024-03-13T02:15:09.645Z,99.99
2024-03-13T02:17:38.980Z,99.99
2024-03-13T02:20:09.201Z,99.99
2024-03-13T02:22:38.863Z,99.99
2024-03-13T02:25:07.016Z,99.99
2024-03-13T02:27:34.433Z,99.99
2024-03-13T02:30:02.449Z,99.99
2024-03-13T02:32:31.582Z,99.99
2024-03-13T02:34:59.759Z,99.99
2024-03-13T02:37:27.904Z,99.99
2024-03-13T02:39:56.358Z,99.99
2024-03-13T02:42:24.327Z,99.99
2024-03-13T02:44:52.385Z,99.99
2024-03-13T02:47:20.466Z,99.99
2024-03-13T02:49:48.764Z,99.99
2024-03-13T02:52:17.002Z,99.99
2024-03-13T02:54:45.251Z,99.99
2024-03-13T02:57:15.881Z,99.99
2024-03-13T02:59:43.904Z,99.99
2024-03-13T03:02:12.195Z,99.99
2024-03-13T03:04:40.338Z,99.99
2024-03-13T03:07:08.739Z,99.99
2024-03-13T03:09:36.802Z,99.99
2024-03-13T03:12:10.321Z,99.99
2024-03-13T03:14:38.411Z,99.99
2024-03-13T03:17:07.953Z,99.99
2024-03-13T03:19:36.195Z,99.99
2024-03-13T03:22:04.784Z,99.99
2024-03-13T03:24:33.005Z,99.99
2024-03-13T03:27:01.055Z,99.99
2024-03-13T03:29:29.078Z,99.99
2024-03-13T03:31:57.163Z,99.99
2024-03-13T03:34:25.548Z,99.99
2024-03-13T03:36:53.975Z,99.99
2024-03-13T03:39:26.227Z,99.99
2024-03-13T03:41:54.519Z,99.99
2024-03-13T03:44:23.067Z,99.99
2024-03-13T03:46:51.140Z,99.99
2024-03-13T03:49:19.150Z,99.99
2024-03-13T03:51:47.684Z,99.99
2024-03-13T03:54:15.717Z,99.99
2024-03-13T03:56:44.809Z,99.99
2024-03-13T03:59:12.918Z,99.99
2024-03-13T04:01:43.103Z,99.99
2024-03-13T04:04:11.570Z,99.99
2024-03-13T04:06:40.781Z,99.99
2024-03-13T04:09:16.170Z,99.99
2024-03-13T04:11:45.004Z,99.99
2024-03-13T04:14:13.403Z,99.99
2024-03-13T04:16:42.677Z,99.99
2024-03-13T04:19:12.104Z,99.99
2024-03-13T04:21:40.376Z,99.99
2024-03-13T04:24:08.806Z,99.99
2024-03-13T04:26:41.550Z,99.99
2024-03-13T04:29:12.217Z,99.99
2024-03-13T04:31:41.350Z,99.99
2024-03-13T04:34:11.521Z,99.99
2024-03-13T04:36:40.194Z,99.99
2024-03-13T04:39:08.847Z,99.99
2024-03-13T04:41:41.160Z,99.99
2024-03-13T04:44:11.003Z,99.99
2024-03-13T04:46:40.050Z,99.99
2024-03-13T04:49:09.932Z,99.99
2024-03-13T04:51:38.960Z,99.99
2024-03-13T04:54:08.451Z,99.99
2024-03-13T04:56:36.425Z,99.99
2024-03-13T04:59:04.523Z,99.99
2024-03-13T05:01:32.575Z,99.99
2024-03-13T05:04:00.761Z,99.99
2024-03-13T05:06:28.956Z,99.99
2024-03-13T05:08:57.079Z,99.99
2024-03-13T05:11:25.242Z,99.99
2024-03-13T05:13:55.676Z,99.99
2024-03-13T05:16:24.679Z,99.99
2024-03-13T05:18:53.811Z,99.99
2024-03-13T05:21:22.853Z,99.99
2024-03-13T05:23:50.950Z,99.99
2024-03-13T05:26:18.963Z,99.99
2024-03-13T05:31:33.066Z,99.99
2024-03-13T05:34:01.470Z,99.99
2024-03-13T05:36:29.686Z,99.99
2024-03-13T05:38:58.946Z,96.78
2024-03-13T05:41:27.114Z,95.87
2024-03-13T05:43:55.055Z,96.89
2024-03-13T05:46:24.096Z,97.27
2024-03-13T05:48:52.374Z,98.07
2024-03-13T05:51:24.064Z,98.32
2024-03-13T05:53:52.272Z,98.11
2024-03-13T05:56:22.276Z,97.48
2024-03-13T05:58:50.364Z,97.81
2024-03-13T06:01:23.627Z,97.43
2024-03-13T06:03:54.729Z,97.11
2024-03-13T06:06:23.486Z,96.97
2024-03-13T06:08:51.661Z,96.45
2024-03-13T06:11:20.405Z,96.98
2024-03-13T06:13:48.503Z,97.45
2024-03-13T06:16:16.763Z,97.15
2024-03-13T06:18:45.036Z,97.04
2024-03-13T06:21:12.991Z,97.80
2024-03-13T06:23:49.289Z,97.82
2024-03-13T06:26:19.312Z,98.33
2024-03-13T06:29:05.141Z,99.04
2024-03-13T06:31:34.789Z,98.08
2024-03-13T06:34:03.110Z,97.61
2024-03-13T06:36:31.268Z,97.96
2024-03-13T06:38:59.426Z,97.41
2024-03-13T06:41:27.798Z,97.80
2024-03-13T06:43:56.097Z,97.60
2024-03-13T06:46:25.662Z,97.57
2024-03-13T06:48:54.179Z,96.91
2024-03-13T06:51:22.408Z,97.01
2024-03-13T06:53:50.449Z,96.79
2024-03-13T06:56:18.635Z,96.78
2024-03-13T06:58:47.441Z,96.71
2024-03-13T07:01:15.758Z,96.13
2024-03-13T07:03:43.938Z,96.52
2024-03-13T07:06:13.238Z,96.44
2024-03-13T07:08:41.503Z,96.12
2024-03-13T07:11:09.505Z,96.47
2024-03-13T07:13:37.548Z,96.60
2024-03-13T07:16:06.555Z,96.65
2024-03-13T07:18:34.653Z,96.92
2024-03-13T07:21:03.533Z,96.84
2024-03-13T07:23:31.492Z,97.33
2024-03-13T07:26:00.803Z,97.77
2024-03-13T07:28:28.925Z,98.03
2024-03-13T07:30:58.573Z,97.56
2024-03-13T07:33:26.573Z,97.96
2024-03-13T07:35:54.771Z,97.66
2024-03-13T07:38:22.716Z,97.47
2024-03-13T07:40:50.791Z,97.41
2024-03-13T07:43:18.916Z,97.45
2024-03-13T07:45:47.472Z,97.96
2024-03-13T07:48:15.679Z,97.46
2024-03-13T07:50:43.745Z,97.27
2024-03-13T07:53:11.952Z,97.00
2024-03-13T07:55:40.292Z,97.63
2024-03-13T07:58:08.569Z,98.12
2024-03-13T08:00:37.556Z,97.93
2024-03-13T08:03:05.913Z,97.34
2024-03-13T08:05:34.226Z,97.76
2024-03-13T09:06:15.414Z,96.46
2024-03-13T09:08:48.380Z,96.34
2024-03-13T09:11:19.182Z,96.16
2024-03-13T09:13:47.274Z,96.64
2024-03-13T09:16:15.512Z,96.33
2024-03-13T09:18:43.700Z,95.67
2024-03-13T09:21:13.426Z,95.59
2024-03-13T09:23:41.699Z,95.45
2024-03-13T09:26:11.497Z,95.20
2024-03-13T09:28:40.044Z,95.75
2024-03-13T09:31:10.923Z,95.30
2024-03-13T09:33:39.216Z,94.99
2024-03-13T09:36:09.344Z,94.64
2024-03-13T09:38:37.558Z,93.55
2024-03-13T09:41:09.872Z,93.35
2024-03-13T09:43:38.423Z,93.04
2024-03-13T09:46:06.592Z,93.55
2024-03-13T09:48:35.697Z,93.16
2024-03-13T09:51:07.087Z,94.12
2024-03-13T09:53:36.703Z,94.32
2024-03-13T09:56:05.631Z,94.57
2024-03-13T09:58:33.624Z,93.86
2024-03-13T10:01:01.723Z,93.65
2024-03-13T10:03:29.917Z,94.39
2024-03-13T10:05:58.234Z,94.32
2024-03-13T10:08:26.270Z,93.85
2024-03-13T10:10:54.440Z,93.31
2024-03-13T10:13:22.570Z,93.14
2024-03-13T10:15:50.673Z,92.52
2024-03-13T10:18:19.334Z,92.46
2024-03-13T10:20:48.357Z,92.00
2024-03-13T10:23:16.570Z,92.43
2024-03-13T10:25:45.613Z,93.03
2024-03-13T10:28:17.650Z,92.29
2024-03-13T10:30:48.477Z,92.45
2024-03-13T10:33:16.607Z,92.34
2024-03-13T10:35:44.958Z,92.05
2024-03-13T10:38:13.775Z,90.29
2024-03-13T10:40:42.826Z,87.72
2024-03-13T10:43:12.054Z,87.71
2024-03-13T10:45:40.160Z,87.72
2024-03-13T10:48:09.225Z,88.63
2024-03-13T10:50:37.566Z,89.20
2024-03-13T10:53:06.736Z,89.93
2024-03-13T10:55:36.718Z,91.09
2024-03-13T10:58:04.889Z,91.65
2024-03-13T11:00:33.049Z,92.16
2024-03-13T11:03:01.086Z,92.06
2024-03-13T11:05:29.244Z,92.71
2024-03-13T11:07:58.109Z,93.42
2024-03-13T11:10:26.303Z,93.16
2024-03-13T11:12:54.530Z,93.48
2024-03-13T11:15:23.074Z,92.98
2024-03-13T11:18:10.535Z,93.53
2024-03-13T11:20:38.833Z,93.52
2024-03-13T11:23:07.718Z,93.42
2024-03-13T11:25:36.042Z,93.19
2024-03-13T11:28:04.498Z,92.53
2024-03-13T11:30:32.824Z,89.64
2024-03-13T11:33:00.956Z,85.25
2024-03-13T11:35:29.390Z,86.45
2024-03-13T11:38:01.541Z,87.07
2024-03-13T11:40:34.556Z,88.86
2024-03-13T11:43:04.301Z,90.50
2024-03-13T11:45:34.019Z,91.71
2024-03-13T11:48:02.796Z,91.96
2024-03-13T11:50:32.256Z,91.90
2024-03-13T11:53:08.429Z,91.87
2024-03-13T11:55:36.951Z,92.45
2024-03-13T11:58:07.863Z,92.96
2024-03-13T12:00:36.213Z,91.62
2024-03-13T12:03:04.496Z,91.70
2024-03-13T12:05:36.585Z,91.96
2024-03-13T12:08:05.282Z,91.83
2024-03-13T12:10:33.856Z,91.69
2024-03-13T12:13:01.835Z,91.69
2024-03-13T12:15:29.914Z,91.69
2024-03-13T12:17:58.458Z,92.06
2024-03-13T12:20:29.767Z,92.02
2024-03-13T12:22:58.060Z,91.80
2024-03-13T12:25:26.108Z,91.71
2024-03-13T12:27:54.802Z,91.41
2024-03-13T12:30:23.318Z,91.13
2024-03-13T12:32:53.663Z,91.50
2024-03-13T12:35:21.996Z,91.33
2024-03-13T12:37:50.986Z,91.29
2024-03-13T12:40:19.169Z,91.39
2024-03-13T12:42:48.347Z,91.39
2024-03-13T12:45:17.356Z,91.05
2024-03-13T12:47:46.120Z,90.55
2024-03-13T12:50:14.424Z,91.45
2024-03-13T12:52:43.093Z,91.04
2024-03-13T12:55:11.542Z,90.67
2024-03-13T12:57:39.594Z,90.42
2024-03-13T13:00:15.161Z,90.13
2024-03-13T13:02:46.553Z,89.83
2024-03-13T13:05:14.938Z,89.60
2024-03-13T13:07:53.085Z,89.77
2024-03-13T13:10:22.832Z,89.36
2024-03-13T13:12:51.162Z,89.97
2024-03-13T13:15:19.363Z,89.42
2024-03-13T13:17:48.430Z,89.42
2024-03-13T13:20:17.494Z,89.65
2024-03-13T13:22:46.357Z,89.00
2024-03-13T13:25:14.401Z,89.91
2024-03-13T13:27:43.886Z,89.67
2024-03-13T13:30:14.457Z,90.01
2024-03-13T13:32:42.940Z,89.86
2024-03-13T13:35:12.224Z,90.00
2024-03-13T13:37:40.656Z,90.46
2024-03-13T13:40:13.976Z,90.29
2024-03-13T13:42:42.591Z,90.56
2024-03-13T13:45:12.243Z,90.74
2024-03-13T13:47:44.637Z,90.63
2024-03-13T13:50:16.487Z,91.07
2024-03-13T13:52:45.440Z,90.54
2024-03-13T13:55:13.766Z,89.85
2024-03-13T13:57:50.377Z,90.31
2024-03-13T14:00:24.146Z,90.40
2024-03-13T14:02:54.586Z,89.62
2024-03-13T14:05:23.462Z,89.45
2024-03-13T14:07:52.873Z,89.08
2024-03-13T14:10:21.396Z,89.65
2024-03-13T14:12:50.565Z,89.93
2024-03-13T14:15:20.352Z,89.71
2024-03-13T14:17:51.513Z,89.87
2024-03-13T14:20:21.628Z,89.66
2024-03-13T14:22:54.902Z,90.15
2024-03-13T14:25:24.436Z,89.81
2024-03-13T14:27:52.647Z,89.63
2024-03-13T14:30:21.006Z,89.72
2024-03-13T14:32:49.570Z,89.73
2024-03-13T14:35:17.934Z,89.88
2024-03-13T14:37:46.091Z,90.60
2024-03-13T14:40:15.941Z,90.53
2024-03-13T14:42:46.346Z,90.75
2024-03-13T14:45:14.564Z,90.25
2024-03-13T14:47:45.595Z,90.89
2024-03-13T14:50:19.183Z,91.09
2024-03-13T14:52:55.872Z,90.80
2024-03-13T14:55:31.582Z,90.63
2024-03-13T14:57:59.671Z,90.90
2024-03-13T15:00:28.692Z,91.38
2024-03-13T15:02:59.063Z,91.16
2024-03-13T15:05:31.097Z,91.06
2024-03-13T15:08:01.765Z,91.12
2024-03-13T15:10:30.948Z,91.27
2024-03-13T15:12:59.578Z,91.54
2024-03-13T15:15:27.768Z,90.91
2024-03-13T15:17:56.147Z,89.72
2024-03-13T15:20:24.534Z,89.94
2024-03-13T15:22:52.566Z,89.38
2024-03-13T15:25:21.114Z,89.74
2024-03-13T15:27:49.293Z,89.13
2024-03-13T15:30:19.686Z,88.78
2024-03-13T15:32:48.315Z,88.65
2024-03-13T15:35:16.501Z,89.07
2024-03-13T15:37:44.737Z,89.57
2024-03-13T15:40:14.433Z,89.44
2024-03-13T15:42:42.515Z,89.85
2024-03-13T15:45:11.734Z,90.13
2024-03-13T15:47:43.143Z,89.86
2024-03-13T15:50:24.150Z,89.14
2024-03-13T15:52:57.767Z,88.99
2024-03-13T15:55:26.202Z,88.62
2024-03-13T15:57:54.268Z,89.12
2024-03-13T16:00:24.712Z,89.55
2024-03-13T16:02:54.328Z,90.26
2024-03-13T16:05:23.971Z,90.80
2024-03-13T16:07:55.288Z,90.57
2024-03-13T16:10:23.744Z,90.48
2024-03-13T16:12:51.817Z,90.05
2024-03-13T16:15:20.050Z,89.67
2024-03-13T16:17:48.436Z,90.11
2024-03-13T16:20:17.881Z,90.35
2024-03-13T16:22:47.567Z,90.37
2024-03-13T16:25:18.389Z,90.64
2024-03-13T16:27:46.615Z,89.95
2024-03-13T16:30:20.334Z,89.78
2024-03-13T16:32:49.315Z,89.97
2024-03-13T16:35:17.720Z,89.42
2024-03-13T16:37:46.650Z,89.88
2024-03-13T16:40:15.502Z,89.34
2024-03-13T16:42:43.913Z,89.63
2024-03-13T16:45:12.946Z,89.89
2024-03-13T16:47:44.242Z,90.31
2024-03-13T16:50:16.161Z,90.42
2024-03-13T16:52:44.805Z,90.45
2024-03-13T16:55:13.509Z,90.79
2024-03-13T16:57:43.181Z,91.08
2024-03-13T17:00:16.511Z,91.39
2024-03-13T17:02:46.788Z,91.44
2024-03-13T17:05:16.732Z,91.25
2024-03-13T17:07:46.350Z,90.34
2024-03-13T17:10:14.772Z,89.96
2024-03-13T17:12:42.926Z,90.63
2024-03-13T17:15:11.343Z,90.48
2024-03-13T17:17:39.459Z,90.74
2024-03-13T17:20:08.970Z,90.22
2024-03-13T17:22:38.453Z,90.40
2024-03-13T17:25:06.986Z,90.18
2024-03-13T17:27:35.248Z,90.14
2024-03-13T17:30:03.481Z,90.40
2024-03-13T17:32:31.784Z,90.35
2024-03-13T17:35:02.092Z,90.52
2024-03-13T17:37:30.767Z,90.26
2024-03-13T17:39:59.045Z,90.58
2024-03-13T17:42:27.318Z,90.58
2024-03-13T17:44:57.930Z,90.22
2024-03-13T17:47:26.169Z,90.58
2024-03-13T17:49:54.257Z,90.70
2024-03-13T17:52:22.479Z,90.89
2024-03-13T17:54:53.082Z,91.26
2024-03-13T17:57:21.571Z,91.39
2024-03-13T17:59:49.860Z,91.58
2024-03-13T18:02:19.957Z,91.64
2024-03-13T18:04:48.839Z,91.74
2024-03-13T18:07:16.934Z,91.75
2024-03-13T18:09:46.605Z,91.80
2024-03-13T18:12:14.731Z,92.03
2024-03-13T18:14:42.964Z,92.00
2024-03-13T18:17:11.102Z,91.83
2024-03-13T18:19:40.837Z,91.99
2024-03-13T18:22:09.288Z,92.16
2024-03-13T18:24:37.622Z,92.24
2024-03-13T18:27:05.760Z,92.34
2024-03-13T18:29:34.427Z,92.55
2024-03-13T18:32:03.467Z,92.11
2024-03-13T18:34:31.950Z,91.91
2024-03-13T18:37:00.399Z,91.85
2024-03-13T18:39:28.827Z,92.06
2024-03-13T18:41:56.928Z,91.97
2024-03-13T18:44:26.394Z,91.87
2024-03-13T18:46:54.850Z,92.00
2024-03-13T18:49:22.990Z,92.07
2024-03-13T18:51:52.513Z,91.68
2024-03-13T18:54:22.697Z,91.69
2024-03-13T18:56:51.619Z,91.58
2024-03-13T18:59:20.266Z,91.52
2024-03-13T19:01:48.760Z,91.67
2024-03-13T19:04:16.935Z,91.65
2024-03-13T19:06:45.894Z,91.81
2024-03-13T19:09:14.450Z,91.89
2024-03-13T19:11:43.237Z,91.90
2024-03-13T19:14:11.375Z,91.82
2024-03-13T19:16:40.878Z,91.90
2024-03-13T19:19:08.956Z,91.89
2024-03-13T19:21:39.848Z,91.88
2024-03-13T19:24:09.894Z,92.05
2024-03-13T19:26:37.910Z,92.16
2024-03-13T19:29:06.072Z,92.45
2024-03-13T19:31:39.219Z,92.42
2024-03-13T19:34:11.219Z,92.34
2024-03-13T19:36:39.463Z,92.56
2024-03-13T19:39:07.781Z,92.65
2024-03-13T19:41:36.689Z,92.77
2024-03-13T19:44:04.753Z,92.88
2024-03-13T19:46:32.849Z,92.80
2024-03-13T19:49:00.938Z,93.01
2024-03-13T19:51:29.332Z,92.97
2024-03-13T19:53:57.402Z,93.10
2024-03-13T19:56:25.720Z,93.15
2024-03-13T19:58:53.770Z,93.39
2024-03-13T20:01:22.355Z,93.48
2024-03-13T20:03:50.383Z,93.53
2024-03-13T20:06:18.432Z,93.72
2024-03-13T20:08:46.622Z,93.76
2024-03-13T20:11:14.705Z,93.69
2024-03-13T20:13:43.186Z,93.67
2024-03-13T20:16:13.249Z,93.83
2024-03-13T20:18:41.571Z,93.98
2024-03-13T20:21:09.785Z,94.02
2024-03-13T20:23:38.602Z,93.89
2024-03-13T20:26:06.616Z,94.15
2024-03-13T20:28:34.940Z,94.13
2024-03-13T20:31:05.183Z,94.32
2024-03-13T20:33:33.810Z,94.47
2024-03-13T20:36:01.986Z,94.70
2024-03-13T20:38:30.500Z,94.63
2024-03-13T20:40:59.017Z,94.60
2024-03-13T20:43:27.188Z,94.54
2024-03-13T20:45:55.200Z,94.62
2024-03-13T20:48:24.297Z,94.70
2024-03-13T20:50:52.975Z,94.65
2024-03-13T20:53:21.149Z,94.77
2024-03-13T20:55:49.572Z,94.88
2024-03-13T20:58:18.302Z,94.88
2024-03-13T21:00:46.594Z,94.93
2024-03-13T21:03:14.792Z,94.89
2024-03-13T21:05:43.072Z,94.87
2024-03-13T21:08:11.416Z,94.86
2024-03-13T21:10:41.139Z,94.80
2024-03-13T21:13:10.337Z,94.88
2024-03-13T21:15:46.024Z,94.84
2024-03-13T21:18:30.830Z,94.56
2024-03-13T21:20:59.508Z,94.45
2024-03-13T21:23:27.629Z,94.36
2024-03-13T21:25:55.788Z,94.35
2024-03-13T21:28:23.853Z,94.34
2024-03-13T21:30:52.235Z,94.20
2024-03-13T21:33:20.450Z,94.30
2024-03-13T21:35:48.887Z,94.28
2024-03-13T21:38:17.846Z,94.31
2024-03-13T21:40:46.535Z,94.16
2024-03-13T21:43:14.571Z,94.14
2024-03-13T21:45:42.965Z,93.91
2024-03-13T21:48:11.376Z,93.79
2024-03-13T21:50:39.709Z,93.76
2024-03-13T21:53:11.497Z,93.57
2024-03-13T21:55:39.635Z,93.55
2024-03-13T21:58:07.738Z,93.55
2024-03-13T22:00:35.938Z,93.58
2024-03-13T22:03:04.042Z,93.46
2024-03-13T22:05:32.696Z,93.37
2024-03-13T22:08:01.242Z,93.19
2024-03-13T22:10:29.772Z,93.28
2024-03-13T22:12:57.778Z,93.42
2024-03-13T22:15:25.871Z,93.43
2024-03-13T22:17:54.003Z,93.40
2024-03-13T22:20:22.125Z,93.43
2024-03-13T22:22:50.295Z,93.64
2024-03-13T22:25:18.296Z,93.64
2024-03-13T22:27:46.797Z,93.70
2024-03-13T22:30:14.920Z,93.72
2024-03-13T22:32:43.176Z,93.81
2024-03-13T22:35:12.049Z,93.85
2024-03-13T22:37:40.119Z,94.13
2024-03-13T22:40:12.825Z,94.32
2024-03-13T22:42:41.412Z,94.39
2024-03-13T22:45:09.875Z,94.35
2024-03-13T22:47:37.965Z,94.43
2024-03-13T22:50:06.507Z,94.39
2024-03-13T22:52:34.656Z,94.56
2024-03-13T22:55:02.635Z,94.64
2024-03-13T22:57:30.937Z,94.61
2024-03-13T22:59:59.009Z,94.70
2024-03-13T23:02:28.059Z,94.78
2024-03-13T23:04:56.881Z,94.68
2024-03-13T23:07:27.683Z,94.64
2024-03-13T23:09:55.914Z,94.66
2024-03-13T23:12:24.429Z,94.64
2024-03-13T23:14:54.510Z,94.55
2024-03-13T23:17:22.713Z,94.53
2024-03-13T23:19:50.962Z,94.33
2024-03-13T23:22:20.084Z,94.22
2024-03-13T23:24:48.109Z,94.23
2024-03-13T23:27:16.468Z,94.27
2024-03-13T23:29:45.408Z,94.18
2024-03-13T23:32:13.931Z,93.80
2024-03-13T23:34:42.394Z,93.84
2024-03-13T23:37:10.967Z,93.82
2024-03-13T23:39:39.335Z,93.69
2024-03-13T23:42:08.382Z,93.46
2024-03-13T23:44:36.786Z,93.34
2024-03-13T23:47:07.425Z,92.80
2024-03-13T23:49:36.231Z,92.92
2024-03-13T23:52:05.603Z,92.64
2024-03-13T23:54:33.711Z,92.84
2024-03-13T23:57:01.949Z,92.86
2024-03-13T23:59:30.919Z,92.72
